sensor_id;sensor_type;location;lat;lon;timestamp;pressure;altitude;pressure_sealevel;temperature;humidity
75699;BME280;64313;51.018;13.742;2023-05-10T00:01:23;99211.31;;;13.88;47.67
75699;BME280;64313;51.018;13.742;2023-05-10T00:03:49;99206.44;;;13.85;47.96
75699;BME280;64313;51.018;13.742;2023-05-10T00:06:14;99210.06;;;13.79;48.28
75699;BME280;64313;51.018;13.742;2023-05-10T00:08:40;99197.66;;;13.78;47.96
75699;BME280;64313;51.018;13.742;2023-05-10T00:11:06;99210.53;;;13.76;48.08
75699;BME280;64313;51.018;13.742;2023-05-10T00:13:31;99203.50;;;13.75;47.98
75699;BME280;64313;51.018;13.742;2023-05-10T00:15:57;99207.47;;;13.72;48.13
75699;BME280;64313;51.018;13.742;2023-05-10T00:18:22;99205.47;;;13.68;48.59
75699;BME280;64313;51.018;13.742;2023-05-10T00:20:48;99204.44;;;13.69;48.22
75699;BME280;64313;51.018;13.742;2023-05-10T00:23:14;99203.25;;;13.64;48.69
75699;BME280;64313;51.018;13.742;2023-05-10T00:25:39;99210.13;;;13.60;48.25
75699;BME280;64313;51.018;13.742;2023-05-10T00:28:04;99199.38;;;13.60;48.60
75699;BME280;64313;51.018;13.742;2023-05-10T00:30:30;99198.81;;;13.58;48.08
75699;BME280;64313;51.018;13.742;2023-05-10T00:32:55;99193.78;;;13.50;49.07
75699;BME280;64313;51.018;13.742;2023-05-10T00:35:20;99195.91;;;13.48;49.05
75699;BME280;64313;51.018;13.742;2023-05-10T00:37:47;99195.53;;;13.45;48.75
75699;BME280;64313;51.018;13.742;2023-05-10T00:40:13;99191.44;;;13.42;48.98
75699;BME280;64313;51.018;13.742;2023-05-10T00:42:41;99182.78;;;13.40;49.04
75699;BME280;64313;51.018;13.742;2023-05-10T00:45:07;99188.16;;;13.40;48.98
75699;BME280;64313;51.018;13.742;2023-05-10T00:47:32;99179.16;;;13.34;49.14
75699;BME280;64313;51.018;13.742;2023-05-10T00:49:58;99180.22;;;13.33;49.34
75699;BME280;64313;51.018;13.742;2023-05-10T00:52:26;99183.34;;;13.30;49.26
75699;BME280;64313;51.018;13.742;2023-05-10T00:54:52;99180.09;;;13.28;49.48
75699;BME280;64313;51.018;13.742;2023-05-10T00:57:17;99180.91;;;13.29;49.33
75699;BME280;64313;51.018;13.742;2023-05-10T00:59:43;99177.00;;;13.25;49.22
75699;BME280;64313;51.018;13.742;2023-05-10T01:02:09;99179.69;;;13.25;49.31
75699;BME280;64313;51.018;13.742;2023-05-10T01:04:34;99171.03;;;13.23;49.45
75699;BME280;64313;51.018;13.742;2023-05-10T01:07:00;99174.78;;;13.21;49.08
75699;BME280;64313;51.018;13.742;2023-05-10T01:09:26;99175.72;;;13.15;49.47
75699;BME280;64313;51.018;13.742;2023-05-10T01:11:51;99176.16;;;13.12;49.57
75699;BME280;64313;51.018;13.742;2023-05-10T01:14:18;99178.28;;;13.10;49.70
75699;BME280;64313;51.018;13.742;2023-05-10T01:16:45;99169.03;;;13.06;49.68
75699;BME280;64313;51.018;13.742;2023-05-10T01:19:18;99174.63;;;13.05;49.54
75699;BME280;64313;51.018;13.742;2023-05-10T01:38:24;99161.72;;;12.83;50.46
75699;BME280;64313;51.018;13.742;2023-05-10T01:43:37;99160.31;;;12.81;50.19
75699;BME280;64313;51.018;13.742;2023-05-10T01:46:08;99157.63;;;12.81;50.59
75699;BME280;64313;51.018;13.742;2023-05-10T01:48:41;99157.25;;;12.77;50.25
75699;BME280;64313;51.018;13.742;2023-05-10T01:51:13;99160.19;;;12.75;50.58
75699;BME280;64313;51.018;13.742;2023-05-10T01:53:39;99157.38;;;12.70;50.57
75699;BME280;64313;51.018;13.742;2023-05-10T01:56:07;99162.13;;;12.68;50.69
75699;BME280;64313;51.018;13.742;2023-05-10T01:58:33;99154.16;;;12.62;50.99
75699;BME280;64313;51.018;13.742;2023-05-10T02:01:03;99153.34;;;12.61;50.83
75699;BME280;64313;51.018;13.742;2023-05-10T02:03:30;99164.53;;;12.58;51.17
75699;BME280;64313;51.018;13.742;2023-05-10T02:05:57;99159.16;;;12.58;50.75
75699;BME280;64313;51.018;13.742;2023-05-10T02:08:24;99156.94;;;12.55;51.17
75699;BME280;64313;51.018;13.742;2023-05-10T02:10:52;99156.56;;;12.51;51.17
75699;BME280;64313;51.018;13.742;2023-05-10T02:13:18;99153.06;;;12.51;51.46
75699;BME280;64313;51.018;13.742;2023-05-10T02:15:47;99157.22;;;12.47;51.29
75699;BME280;64313;51.018;13.742;2023-05-10T02:18:13;99152.13;;;12.45;51.58
75699;BME280;64313;51.018;13.742;2023-05-10T02:20:39;99150.31;;;12.39;51.52
75699;BME280;64313;51.018;13.742;2023-05-10T02:23:05;99150.56;;;12.38;51.97
75699;BME280;64313;51.018;13.742;2023-05-10T02:25:32;99151.00;;;12.34;51.68
75699;BME280;64313;51.018;13.742;2023-05-10T02:28:00;99142.81;;;12.29;52.42
75699;BME280;64313;51.018;13.742;2023-05-10T02:30:27;99147.34;;;12.29;52.04
75699;BME280;64313;51.018;13.742;2023-05-10T02:32:54;99149.66;;;12.25;52.18
75699;BME280;64313;51.018;13.742;2023-05-10T02:35:23;99152.56;;;12.24;52.75
75699;BME280;64313;51.018;13.742;2023-05-10T02:37:50;99155.09;;;12.19;52.62
75699;BME280;64313;51.018;13.742;2023-05-10T02:40:17;99150.78;;;12.18;52.36
75699;BME280;64313;51.018;13.742;2023-05-10T02:42:44;99149.38;;;12.15;52.76
75699;BME280;64313;51.018;13.742;2023-05-10T02:45:14;99146.09;;;12.13;52.46
75699;BME280;64313;51.018;13.742;2023-05-10T02:47:41;99146.09;;;12.13;52.51
75699;BME280;64313;51.018;13.742;2023-05-10T02:50:07;99146.97;;;12.07;53.17
75699;BME280;64313;51.018;13.742;2023-05-10T02:52:45;99141.03;;;12.05;52.92
75699;BME280;64313;51.018;13.742;2023-05-10T02:55:14;99140.44;;;12.03;53.39
75699;BME280;64313;51.018;13.742;2023-05-10T02:57:49;99140.50;;;11.96;53.36
75699;BME280;64313;51.018;13.742;2023-05-10T03:00:16;99146.69;;;11.97;53.09
75699;BME280;64313;51.018;13.742;2023-05-10T03:02:42;99136.41;;;11.94;53.48
75699;BME280;64313;51.018;13.742;2023-05-10T03:05:07;99145.06;;;11.96;53.24
75699;BME280;64313;51.018;13.742;2023-05-10T03:07:33;99150.84;;;11.93;53.32
75699;BME280;64313;51.018;13.742;2023-05-10T03:09:59;99152.72;;;11.92;53.94
75699;BME280;64313;51.018;13.742;2023-05-10T03:12:33;99143.47;;;11.88;53.50
75699;BME280;64313;51.018;13.742;2023-05-10T03:18:06;99155.63;;;11.84;53.67
75699;BME280;64313;51.018;13.742;2023-05-10T03:20:42;99152.16;;;11.83;53.89
75699;BME280;64313;51.018;13.742;2023-05-10T03:25:54;99148.94;;;11.75;54.31
75699;BME280;64313;51.018;13.742;2023-05-10T03:28:20;99154.31;;;11.75;54.27
75699;BME280;64313;51.018;13.742;2023-05-10T03:30:47;99148.94;;;11.75;54.05
75699;BME280;64313;51.018;13.742;2023-05-10T03:33:13;99147.53;;;11.72;54.24
75699;BME280;64313;51.018;13.742;2023-05-10T03:35:42;99147.53;;;11.72;54.22
75699;BME280;64313;51.018;13.742;2023-05-10T03:38:07;99145.28;;;11.69;54.88
75699;BME280;64313;51.018;13.742;2023-05-10T03:40:33;99137.69;;;11.66;54.58
75699;BME280;64313;51.018;13.742;2023-05-10T03:42:59;99134.66;;;11.62;54.51
75699;BME280;64313;51.018;13.742;2023-05-10T03:45:25;99143.69;;;11.61;54.63
75699;BME280;64313;51.018;13.742;2023-05-10T03:47:51;99141.84;;;11.62;54.76
75699;BME280;64313;51.018;13.742;2023-05-10T03:50:16;99150.72;;;11.62;54.84
75699;BME280;64313;51.018;13.742;2023-05-10T03:52:42;99154.19;;;11.63;54.91
75699;BME280;64313;51.018;13.742;2023-05-10T03:55:07;99155.25;;;11.62;55.28
75699;BME280;64313;51.018;13.742;2023-05-10T03:57:33;99152.16;;;11.58;55.06
75699;BME280;64313;51.018;13.742;2023-05-10T03:59:59;99155.09;;;11.57;55.42
75699;BME280;64313;51.018;13.742;2023-05-10T04:02:25;99152.63;;;11.55;55.49
75699;BME280;64313;51.018;13.742;2023-05-10T04:04:50;99152.41;;;11.57;55.96
75699;BME280;64313;51.018;13.742;2023-05-10T04:07:17;99151.56;;;11.56;55.53
75699;BME280;64313;51.018;13.742;2023-05-10T04:09:43;99156.91;;;11.56;55.73
75699;BME280;64313;51.018;13.742;2023-05-10T04:12:08;99148.31;;;11.54;55.77
75699;BME280;64313;51.018;13.742;2023-05-10T04:14:34;99154.03;;;11.58;55.42
75699;BME280;64313;51.018;13.742;2023-05-10T04:16:59;99153.81;;;11.59;55.55
75699;BME280;64313;51.018;13.742;2023-05-10T04:19:31;99153.22;;;11.57;55.92
75699;BME280;64313;51.018;13.742;2023-05-10T04:21:57;99152.41;;;11.57;55.74
75699;BME280;64313;51.018;13.742;2023-05-10T04:24:23;99146.81;;;11.58;55.88
75699;BME280;64313;51.018;13.742;2023-05-10T04:26:48;99146.16;;;11.63;55.61
75699;BME280;64313;51.018;13.742;2023-05-10T04:29:13;99150.47;;;11.64;55.96
75699;BME280;64313;51.018;13.742;2023-05-10T04:31:38;99151.50;;;11.63;55.85
75699;BME280;64313;51.018;13.742;2023-05-10T04:34:04;99148.19;;;11.67;55.73
75699;BME280;64313;51.018;13.742;2023-05-10T04:36:30;99154.34;;;11.68;55.55
75699;BME280;64313;51.018;13.742;2023-05-10T04:38:55;99156.59;;;11.71;56.11
75699;BME280;64313;51.018;13.742;2023-05-10T04:41:20;99146.47;;;11.73;56.08
75699;BME280;64313;51.018;13.742;2023-05-10T04:43:47;99148.28;;;11.79;55.73
75699;BME280;64313;51.018;13.742;2023-05-10T04:46:14;99143.50;;;11.81;55.54
75699;BME280;64313;51.018;13.742;2023-05-10T04:48:39;99153.97;;;11.89;55.53
75699;BME280;64313;51.018;13.742;2023-05-10T04:51:05;99137.47;;;11.93;55.43
75699;BME280;64313;51.018;13.742;2023-05-10T04:53:31;99133.88;;;11.99;55.34
75699;BME280;64313;51.018;13.742;2023-05-10T04:55:57;99135.09;;;12.03;55.33
75699;BME280;64313;51.018;13.742;2023-05-10T04:58:22;99133.56;;;12.07;54.98
75699;BME280;64313;51.018;13.742;2023-05-10T05:00:47;99139.94;;;12.12;55.66
75699;BME280;64313;51.018;13.742;2023-05-10T05:03:14;99142.75;;;12.18;55.73
75699;BME280;64313;51.018;13.742;2023-05-10T05:05:40;99142.66;;;12.24;55.29
75699;BME280;64313;51.018;13.742;2023-05-10T05:08:05;99138.66;;;12.33;54.85
75699;BME280;64313;51.018;13.742;2023-05-10T05:10:30;99136.69;;;12.41;54.86
75699;BME280;64313;51.018;13.742;2023-05-10T05:12:56;99136.38;;;12.49;54.46
75699;BME280;64313;51.018;13.742;2023-05-10T05:15:24;99136.06;;;12.57;54.40
75699;BME280;64313;51.018;13.742;2023-05-10T05:17:53;99138.22;;;12.67;54.14
75699;BME280;64313;51.018;13.742;2023-05-10T05:20:19;99141.63;;;12.74;54.42
75699;BME280;64313;51.018;13.742;2023-05-10T05:22:45;99134.09;;;12.83;54.16
75699;BME280;64313;51.018;13.742;2023-05-10T05:25:10;99141.00;;;12.90;53.83
75699;BME280;64313;51.018;13.742;2023-05-10T05:27:50;99139.84;;;12.98;53.88
75699;BME280;64313;51.018;13.742;2023-05-10T05:30:15;99136.03;;;13.06;53.52
75699;BME280;64313;51.018;13.742;2023-05-10T05:32:41;99134.88;;;13.13;53.46
75699;BME280;64313;51.018;13.742;2023-05-10T05:35:09;99141.53;;;13.23;53.34
75699;BME280;64313;51.018;13.742;2023-05-10T05:37:34;99141.25;;;13.31;53.35
75699;BME280;64313;51.018;13.742;2023-05-10T05:40:00;99129.34;;;13.38;53.27
75699;BME280;64313;51.018;13.742;2023-05-10T05:42:27;99128.19;;;13.46;52.71
75699;BME280;64313;51.018;13.742;2023-05-10T05:44:52;99133.78;;;13.56;52.98
75699;BME280;64313;51.018;13.742;2023-05-10T05:47:17;99130.75;;;13.64;52.61
75699;BME280;64313;51.018;13.742;2023-05-10T05:49:43;99130.63;;;13.71;52.37
75699;BME280;64313;51.018;13.742;2023-05-10T05:52:11;99130.50;;;13.78;52.70
75699;BME280;64313;51.018;13.742;2023-05-10T05:54:36;99136.56;;;13.85;52.77
75699;BME280;64313;51.018;13.742;2023-05-10T05:57:02;99137.28;;;13.92;52.59
75699;BME280;64313;51.018;13.742;2023-05-10T05:59:27;99131.53;;;14.00;52.04
75699;BME280;64313;51.018;13.742;2023-05-10T06:01:53;99127.06;;;14.06;51.61
75699;BME280;64313;51.018;13.742;2023-05-10T06:04:18;99133.16;;;14.13;51.88
75699;BME280;64313;51.018;13.742;2023-05-10T06:06:45;99131.41;;;14.19;51.45
75699;BME280;64313;51.018;13.742;2023-05-10T06:09:11;99136.63;;;14.25;51.55
75699;BME280;64313;51.018;13.742;2023-05-10T06:11:37;99142.47;;;14.34;51.86
75699;BME280;64313;51.018;13.742;2023-05-10T06:14:04;99141.03;;;14.43;51.45
75699;BME280;64313;51.018;13.742;2023-05-10T06:16:30;99155.97;;;14.51;52.07
75699;BME280;64313;51.018;13.742;2023-05-10T06:18:57;99143.22;;;14.58;51.42
75699;BME280;64313;51.018;13.742;2023-05-10T06:21:22;99152.22;;;14.64;51.03
75699;BME280;64313;51.018;13.742;2023-05-10T06:23:48;99144.22;;;14.69;51.14
75699;BME280;64313;51.018;13.742;2023-05-10T06:26:13;99152.97;;;14.76;51.02
75699;BME280;64313;51.018;13.742;2023-05-10T06:28:39;99159.28;;;14.82;50.81
75699;BME280;64313;51.018;13.742;2023-05-10T06:31:05;99151.88;;;14.89;50.76
75699;BME280;64313;51.018;13.742;2023-05-10T06:33:31;99156.03;;;14.97;50.96
75699;BME280;64313;51.018;13.742;2023-05-10T06:35:57;99154.59;;;15.06;50.99
75699;BME280;64313;51.018;13.742;2023-05-10T06:38:22;99152.56;;;15.13;50.28
75699;BME280;64313;51.018;13.742;2023-05-10T06:40:48;99156.75;;;15.21;50.54
75699;BME280;64313;51.018;13.742;2023-05-10T06:43:13;99150.63;;;15.25;50.43
75699;BME280;64313;51.018;13.742;2023-05-10T06:45:39;99148.59;;;15.32;50.09
75699;BME280;64313;51.018;13.742;2023-05-10T06:48:04;99153.22;;;15.37;50.11
75699;BME280;64313;51.018;13.742;2023-05-10T06:50:29;99150.66;;;15.42;49.75
75699;BME280;64313;51.018;13.742;2023-05-10T06:52:55;99153.75;;;15.51;49.47
75699;BME280;64313;51.018;13.742;2023-05-10T06:55:21;99160.81;;;15.57;48.94
75699;BME280;64313;51.018;13.742;2023-05-10T06:57:46;99156.34;;;15.63;49.14
75699;BME280;64313;51.018;13.742;2023-05-10T07:00:13;99156.19;;;15.69;48.91
75699;BME280;64313;51.018;13.742;2023-05-10T07:02:38;99157.34;;;15.73;48.98
75699;BME280;64313;51.018;13.742;2023-05-10T07:05:04;99152.28;;;15.77;48.60
75699;BME280;64313;51.018;13.742;2023-05-10T07:07:29;99159.97;;;15.85;48.20
75699;BME280;64313;51.018;13.742;2023-05-10T07:09:55;99162.97;;;15.89;48.30
75699;BME280;64313;51.018;13.742;2023-05-10T07:12:21;99159.53;;;15.93;48.38
75699;BME280;64313;51.018;13.742;2023-05-10T07:14:46;99160.66;;;15.97;48.54
75699;BME280;64313;51.018;13.742;2023-05-10T07:17:12;99156.16;;;16.03;48.19
75699;BME280;64313;51.018;13.742;2023-05-10T07:19:37;99164.31;;;16.08;47.98
75699;BME280;64313;51.018;13.742;2023-05-10T07:22:02;99154.97;;;16.16;48.22
75699;BME280;64313;51.018;13.742;2023-05-10T07:24:28;99144.50;;;16.19;48.00
75699;BME280;64313;51.018;13.742;2023-05-10T07:26:53;99151.84;;;16.24;47.77
75699;BME280;64313;51.018;13.742;2023-05-10T07:29:18;99146.50;;;16.29;48.15
75699;BME280;64313;51.018;13.742;2023-05-10T07:31:44;99163.56;;;16.35;47.75
75699;BME280;64313;51.018;13.742;2023-05-10T07:34:09;99159.31;;;16.39;47.84
75699;BME280;64313;51.018;13.742;2023-05-10T07:36:35;99152.38;;;16.43;48.01
75699;BME280;64313;51.018;13.742;2023-05-10T07:39:00;99167.28;;;16.51;47.63
75699;BME280;64313;51.018;13.742;2023-05-10T07:41:25;99162.19;;;16.54;47.92
75699;BME280;64313;51.018;13.742;2023-05-10T07:43:51;99164.44;;;16.62;47.89
75699;BME280;64313;51.018;13.742;2023-05-10T07:46:16;99160.75;;;16.69;47.86
75699;BME280;64313;51.018;13.742;2023-05-10T07:48:41;99156.72;;;16.71;47.34
75699;BME280;64313;51.018;13.742;2023-05-10T07:51:07;99156.78;;;16.76;47.29
75699;BME280;64313;51.018;13.742;2023-05-10T07:53:34;99156.59;;;16.83;47.32
75699;BME280;64313;51.018;13.742;2023-05-10T07:56:20;99156.41;;;16.90;47.48
75699;BME280;64313;51.018;13.742;2023-05-10T07:58:46;99158.91;;;16.96;47.50
75699;BME280;64313;51.018;13.742;2023-05-10T08:01:11;99158.41;;;16.99;46.94
75699;BME280;64313;51.018;13.742;2023-05-10T08:03:37;99155.22;;;17.07;47.22
75699;BME280;64313;51.018;13.742;2023-05-10T08:06:02;99156.94;;;17.14;47.17
75699;BME280;64313;51.018;13.742;2023-05-10T08:08:28;99150.50;;;17.20;47.70
75699;BME280;64313;51.018;13.742;2023-05-10T08:10:53;99151.34;;;17.25;47.25
75699;BME280;64313;51.018;13.742;2023-05-10T08:13:19;99154.34;;;17.29;46.53
75699;BME280;64313;51.018;13.742;2023-05-10T08:15:44;99144.41;;;17.35;46.54
75699;BME280;64313;51.018;13.742;2023-05-10T08:18:09;99150.66;;;17.40;46.64
75699;BME280;64313;51.018;13.742;2023-05-10T08:20:34;99159.63;;;17.46;46.19
75699;BME280;64313;51.018;13.742;2023-05-10T08:23:00;99157.22;;;17.49;46.78
75699;BME280;64313;51.018;13.742;2023-05-10T08:25:27;99157.50;;;17.53;46.36
75699;BME280;64313;51.018;13.742;2023-05-10T08:27:52;99159.19;;;17.59;46.63
75699;BME280;64313;51.018;13.742;2023-05-10T08:30:17;99156.78;;;17.63;46.29
75699;BME280;64313;51.018;13.742;2023-05-10T08:32:43;99162.53;;;17.71;46.47
75699;BME280;64313;51.018;13.742;2023-05-10T08:35:08;99160.09;;;17.75;46.72
75699;BME280;64313;51.018;13.742;2023-05-10T08:37:33;99163.94;;;17.79;46.52
75699;BME280;64313;51.018;13.742;2023-05-10T08:39:59;99162.91;;;17.85;46.15
75699;BME280;64313;51.018;13.742;2023-05-10T08:42:25;99169.72;;;17.93;46.23
75699;BME280;64313;51.018;13.742;2023-05-10T08:44:54;99166.47;;;17.96;45.98
75699;BME280;64313;51.018;13.742;2023-05-10T08:47:20;99157.59;;;18.01;45.83
75699;BME280;64313;51.018;13.742;2023-05-10T08:49:47;99174.97;;;18.10;46.15
75699;BME280;64313;51.018;13.742;2023-05-10T08:52:14;99187.72;;;18.14;45.72
75699;BME280;64313;51.018;13.742;2023-05-10T08:54:41;99182.84;;;18.22;45.96
75699;BME280;64313;51.018;13.742;2023-05-10T08:57:06;99186.44;;;18.27;46.17
75699;BME280;64313;51.018;13.742;2023-05-10T08:59:32;99185.09;;;18.35;46.13
75699;BME280;64313;51.018;13.742;2023-05-10T09:01:58;99190.25;;;18.42;45.63
75699;BME280;64313;51.018;13.742;2023-05-10T09:04:24;99191.94;;;18.48;45.58
75699;BME280;64313;51.018;13.742;2023-05-10T09:06:50;99192.75;;;18.53;45.67
75699;BME280;64313;51.018;13.742;2023-05-10T09:09:17;99190.34;;;18.62;45.86
75699;BME280;64313;51.018;13.742;2023-05-10T09:11:43;99203.94;;;18.67;45.86
75699;BME280;64313;51.018;13.742;2023-05-10T09:14:09;99200.16;;;18.73;45.20
75699;BME280;64313;51.018;13.742;2023-05-10T09:16:34;99197.50;;;18.78;45.96
75699;BME280;64313;51.018;13.742;2023-05-10T09:19:00;99193.97;;;18.83;45.44
75699;BME280;64313;51.018;13.742;2023-05-10T09:21:25;99196.97;;;18.87;45.04
75699;BME280;64313;51.018;13.742;2023-05-10T09:23:50;99198.34;;;18.94;45.33
75699;BME280;64313;51.018;13.742;2023-05-10T09:26:22;99202.41;;;19.02;45.20
75699;BME280;64313;51.018;13.742;2023-05-10T09:28:52;99196.75;;;19.03;45.03
75699;BME280;64313;51.018;13.742;2023-05-10T09:31:18;99196.50;;;19.10;45.01
75699;BME280;64313;51.018;13.742;2023-05-10T09:33:48;99201.09;;;19.15;45.19
75699;BME280;64313;51.018;13.742;2023-05-10T09:36:14;99203.53;;;19.21;45.15
75699;BME280;64313;51.018;13.742;2023-05-10T09:38:50;99207.63;;;19.29;45.23
75699;BME280;64313;51.018;13.742;2023-05-10T09:41:20;99210.06;;;19.31;44.75
75699;BME280;64313;51.018;13.742;2023-05-10T09:43:46;99203.28;;;19.28;44.63
75699;BME280;64313;51.018;13.742;2023-05-10T09:46:11;99207.38;;;19.31;44.79
75699;BME280;64313;51.018;13.742;2023-05-10T09:48:42;99210.88;;;19.36;45.37
75699;BME280;64313;51.018;13.742;2023-05-10T09:51:09;99211.44;;;19.43;44.85
75699;BME280;64313;51.018;13.742;2023-05-10T09:53:34;99202.75;;;19.46;44.93
75699;BME280;64313;51.018;13.742;2023-05-10T09:56:00;99206.03;;;19.54;45.14
75699;BME280;64313;51.018;13.742;2023-05-10T09:58:25;99201.41;;;19.59;44.50
75699;BME280;64313;51.018;13.742;2023-05-10T10:00:50;99198.16;;;19.62;44.19
75699;BME280;64313;51.018;13.742;2023-05-10T10:03:19;99201.41;;;19.64;43.57
75699;BME280;64313;51.018;13.742;2023-05-10T10:05:45;99196.31;;;19.68;43.44
75699;BME280;64313;51.018;13.742;2023-05-10T10:08:12;99192.22;;;19.71;43.18
75699;BME280;64313;51.018;13.742;2023-05-10T10:10:38;99191.69;;;19.79;44.28
75699;BME280;64313;51.018;13.742;2023-05-10T10:13:05;99197.09;;;19.84;44.04
75699;BME280;64313;51.018;13.742;2023-05-10T10:15:32;99193.28;;;19.90;43.33
75699;BME280;64313;51.018;13.742;2023-05-10T10:17:58;99204.94;;;19.91;43.38
75699;BME280;64313;51.018;13.742;2023-05-10T10:20:25;99198.16;;;19.93;42.97
75699;BME280;64313;51.018;13.742;2023-05-10T10:22:51;99194.91;;;19.91;43.53
75699;BME280;64313;51.018;13.742;2023-05-10T10:25:17;99188.38;;;19.97;43.35
75699;BME280;64313;51.018;13.742;2023-05-10T10:30:31;99185.97;;;20.01;43.48
75699;BME280;64313;51.018;13.742;2023-05-10T10:35:31;99198.41;;;20.02;43.60
75699;BME280;64313;51.018;13.742;2023-05-10T10:37:57;99196.50;;;20.02;43.30
75699;BME280;64313;51.018;13.742;2023-05-10T10:40:23;99195.97;;;20.05;43.62
75699;BME280;64313;51.018;13.742;2023-05-10T10:42:49;99205.19;;;20.09;44.94
75699;BME280;64313;51.018;13.742;2023-05-10T10:45:17;99197.31;;;20.08;42.95
75699;BME280;64313;51.018;13.742;2023-05-10T10:47:44;99204.38;;;20.09;42.85
75699;BME280;64313;51.018;13.742;2023-05-10T10:50:10;99203.28;;;20.10;42.36
75699;BME280;64313;51.018;13.742;2023-05-10T10:52:41;99205.72;;;20.12;43.16
75699;BME280;64313;51.018;13.742;2023-05-10T10:55:09;99204.09;;;20.10;42.80
75699;BME280;64313;51.018;13.742;2023-05-10T11:02:52;99198.97;;;20.09;43.41
75699;BME280;64313;51.018;13.742;2023-05-10T11:07:56;99201.91;;;20.13;43.15
75699;BME280;64313;51.018;13.742;2023-05-10T11:10:22;99201.38;;;20.16;43.46
75699;BME280;64313;51.018;13.742;2023-05-10T11:15:34;99204.91;;;20.21;43.70
75699;BME280;64313;51.018;13.742;2023-05-10T11:20:44;99200.81;;;20.29;43.29
75699;BME280;64313;51.018;13.742;2023-05-10T11:23:15;99195.63;;;20.32;43.73
75699;BME280;64313;51.018;13.742;2023-05-10T11:25:44;99199.69;;;20.35;43.52
75699;BME280;64313;51.018;13.742;2023-05-10T11:28:11;99210.81;;;20.39;43.80
75699;BME280;64313;51.018;13.742;2023-05-10T11:30:41;99207.81;;;20.40;43.15
75699;BME280;64313;51.018;13.742;2023-05-10T11:33:08;99211.34;;;20.41;42.83
75699;BME280;64313;51.018;13.742;2023-05-10T11:35:38;99202.66;;;20.44;42.90
75699;BME280;64313;51.018;13.742;2023-05-10T11:38:08;99209.16;;;20.48;43.54
75699;BME280;64313;51.018;13.742;2023-05-10T11:40:34;99211.59;;;20.49;42.39
75699;BME280;64313;51.018;13.742;2023-05-10T11:43:00;99213.22;;;20.50;41.58
75699;BME280;64313;51.018;13.742;2023-05-10T11:45:26;99211.59;;;20.49;42.44
75699;BME280;64313;51.018;13.742;2023-05-10T11:47:52;99206.44;;;20.48;41.70
75699;BME280;64313;51.018;13.742;2023-05-10T11:50:18;99210.25;;;20.47;42.00
75699;BME280;64313;51.018;13.742;2023-05-10T11:52:43;99217.31;;;20.43;42.07
75699;BME280;64313;51.018;13.742;2023-05-10T11:55:08;99215.13;;;20.45;42.13
75699;BME280;64313;51.018;13.742;2023-05-10T11:57:35;99212.16;;;20.46;42.52
75699;BME280;64313;51.018;13.742;2023-05-10T12:00:00;99216.47;;;20.52;42.68
75699;BME280;64313;51.018;13.742;2023-05-10T12:02:28;99219.19;;;20.58;42.77
75699;BME280;64313;51.018;13.742;2023-05-10T12:04:55;99207.50;;;20.62;42.05
75699;BME280;64313;51.018;13.742;2023-05-10T12:07:20;99211.81;;;20.68;42.83
75699;BME280;64313;51.018;13.742;2023-05-10T12:10:05;99212.31;;;20.75;42.09
75699;BME280;64313;51.018;13.742;2023-05-10T12:15:20;99210.38;;;20.86;42.62
75699;BME280;64313;51.018;13.742;2023-05-10T12:17:46;99210.34;;;20.91;42.60
75699;BME280;64313;51.018;13.742;2023-05-10T12:20:22;99224.44;;;20.99;41.43
75699;BME280;64313;51.018;13.742;2023-05-10T12:22:52;99213.53;;;21.04;41.87
75699;BME280;64313;51.018;13.742;2023-05-10T12:25:19;99211.63;;;21.09;42.52
75699;BME280;64313;51.018;13.742;2023-05-10T12:27:53;99223.28;;;21.15;42.08
75699;BME280;64313;51.018;13.742;2023-05-10T12:30:20;99219.41;;;21.21;43.93
75699;BME280;64313;51.018;13.742;2023-05-10T12:32:46;99225.66;;;21.22;41.63
75699;BME280;64313;51.018;13.742;2023-05-10T12:35:11;99224.59;;;21.23;41.46
75699;BME280;64313;51.018;13.742;2023-05-10T12:37:36;99229.22;;;21.22;41.11
75699;BME280;64313;51.018;13.742;2023-05-10T12:40:08;99230.28;;;21.21;41.31
75699;BME280;64313;51.018;13.742;2023-05-10T12:42:35;99226.22;;;21.18;41.69
75699;BME280;64313;51.018;13.742;2023-05-10T12:45:01;99223.81;;;21.17;40.39
75699;BME280;64313;51.018;13.742;2023-05-10T12:47:27;99231.13;;;21.16;41.08
75699;BME280;64313;51.018;13.742;2023-05-10T12:49:52;99226.78;;;21.15;40.92
75699;BME280;64313;51.018;13.742;2023-05-10T12:52:18;99233.56;;;21.18;41.34
75699;BME280;64313;51.018;13.742;2023-05-10T12:54:43;99234.13;;;21.20;41.55
75699;BME280;64313;51.018;13.742;2023-05-10T12:57:08;99231.94;;;21.22;41.21
75699;BME280;64313;51.018;13.742;2023-05-10T12:59:34;99234.09;;;21.25;41.54
75699;BME280;64313;51.018;13.742;2023-05-10T13:01:59;99231.91;;;21.27;41.99
75699;BME280;64313;51.018;13.742;2023-05-10T13:04:24;99241.41;;;21.30;41.43
75699;BME280;64313;51.018;13.742;2023-05-10T13:06:50;99241.09;;;21.31;41.58
75699;BME280;64313;51.018;13.742;2023-05-10T13:09:15;99238.09;;;21.33;42.79
75699;BME280;64313;51.018;13.742;2023-05-10T13:11:41;99234.00;;;21.35;41.57
75699;BME280;64313;51.018;13.742;2023-05-10T13:14:06;99233.47;;;21.38;41.07
75699;BME280;64313;51.018;13.742;2023-05-10T13:16:32;99238.34;;;21.42;42.01
75699;BME280;64313;51.018;13.742;2023-05-10T13:18:57;99239.97;;;21.43;42.15
75699;BME280;64313;51.018;13.742;2023-05-10T13:21:23;99238.88;;;21.44;42.20
75699;BME280;64313;51.018;13.742;2023-05-10T13:23:50;99241.59;;;21.44;41.60
75699;BME280;64313;51.018;13.742;2023-05-10T13:26:15;99241.91;;;21.42;40.65
75699;BME280;64313;51.018;13.742;2023-05-10T13:28:40;99239.44;;;21.41;41.71
75699;BME280;64313;51.018;13.742;2023-05-10T13:31:06;99235.13;;;21.39;40.69
75699;BME280;64313;51.018;13.742;2023-05-10T13:33:31;99234.28;;;21.39;41.43